Time;durP1;ratioP1;P1;durP2;ratioP2;P2;SDS_P1;SDS_P2;PMS_P1;PMS_P2;Temp;Humidity;BMP_temperature;BMP_pressure;BME280_temperature;BME280_humidity;BME280_pressure;Samples;Min_cycle;Max_cycle;Signal;HPM_P1;HPM_P2
2023/01/11 00:01:30;;;;;;;11.83;5.97;;;7.60;99.90;;;;;;5029915;28;20120;-84
2023/01/11 00:03:55;;;;;;;12.50;6.43;;;8.80;99.90;;;;;;5013527;28;20084;-83
2023/01/11 00:06:27;;;;;;;11.23;6.17;;;8.70;99.90;;;;;;5029560;28;20050;-84
2023/01/11 00:08:55;;;;;;;13.37;7.20;;;7.40;99.90;;;;;;5032529;28;20060;-84
2023/01/11 00:11:32;;;;;;;13.50;7.10;;;9.20;99.90;;;;;;5030421;28;20509;-84
2023/01/11 00:14:07;;;;;;;12.15;6.35;;;9.70;99.90;;;;;;5013098;28;20089;-84
2023/01/11 00:16:48;;;;;;;11.85;6.72;;;7.60;99.90;;;;;;5016176;28;20119;-84
2023/01/11 00:19:22;;;;;;;13.07;6.53;;;9.80;99.90;;;;;;5077988;22;20065;-84
2023/01/11 00:22:51;;;;;;;11.90;7.15;;;8.10;99.90;;;;;;5037297;28;20099;-84
2023/01/11 00:25:42;;;;;;;12.52;7.03;;;7.00;99.90;;;;;;5038788;28;20053;-84
2023/01/11 00:28:08;;;;;;;11.70;6.80;;;9.50;99.90;;;;;;5037049;28;20053;-84
2023/01/11 00:30:37;;;;;;;12.00;6.97;;;8.10;99.90;;;;;;5055890;28;20052;-84
2023/01/11 00:33:15;;;;;;;11.60;5.65;;;8.00;99.90;;;;;;5021559;28;20397;-84
2023/01/11 00:35:41;;;;;;;11.15;6.07;;;7.80;99.90;;;;;;5055225;28;20049;-83
2023/01/11 00:38:06;;;;;;;11.43;6.03;;;9.60;99.90;;;;;;5038165;28;20599;-83
2023/01/11 00:40:32;;;;;;;13.30;7.40;;;9.50;99.90;;;;;;5058671;28;20040;-83
2023/01/11 00:49:04;;;;;;;13.68;6.78;;;8.30;99.90;;;;;;5037401;28;20063;-84
2023/01/11 00:51:30;;;;;;;12.20;6.50;;;9.50;99.90;;;;;;5037141;28;20043;-85
2023/01/11 00:54:11;;;;;;;14.40;6.63;;;9.90;99.90;;;;;;5037537;28;20067;-84
2023/01/11 00:56:52;;;;;;;11.37;5.93;;;7.60;99.90;;;;;;5036760;28;20501;-85
2023/01/11 00:59:33;;;;;;;11.77;6.47;;;9.80;99.90;;;;;;5055045;28;20049;-85
2023/01/11 01:01:59;;;;;;;11.40;6.27;;;8.70;99.90;;;;;;5037532;28;20060;-84
2023/01/11 01:04:33;;;;;;;11.20;6.07;;;8.30;99.90;;;;;;5036332;28;20049;-85
2023/01/11 01:06:59;;;;;;;11.52;6.15;;;7.40;99.90;;;;;;5037834;28;20041;-85
2023/01/11 01:09:44;;;;;;;11.30;5.90;;;7.40;99.90;;;;;;5054723;28;20052;-85
2023/01/11 01:12:11;;;;;;;11.77;5.93;;;7.90;99.90;;;;;;5055081;28;20072;-85
2023/01/11 01:14:37;;;;;;;10.98;5.55;;;10.20;99.90;;;;;;5055474;28;20041;-85
2023/01/11 01:17:06;;;;;;;11.52;5.80;;;8.70;99.90;;;;;;5054741;28;20040;-84
2023/01/11 01:19:37;;;;;;;11.82;5.65;;;9.70;99.90;;;;;;5034087;28;20040;-85
2023/01/11 01:22:02;;;;;;;12.40;6.05;;;8.90;99.90;;;;;;5054834;28;20126;-85
2023/01/11 01:24:43;;;;;;;10.95;5.65;;;8.60;99.90;;;;;;5036100;28;20138;-84
2023/01/11 01:27:14;;;;;;;10.80;5.53;;;7.20;99.90;;;;;;5054107;28;20041;-86
2023/01/11 01:29:40;;;;;;;10.97;5.67;;;9.30;99.90;;;;;;5055489;28;20041;-85
2023/01/11 01:32:26;;;;;;;12.23;5.78;;;8.60;99.90;;;;;;5027140;23;20064;-85
2023/01/11 01:34:51;;;;;;;10.77;5.53;;;8.80;99.90;;;;;;5034525;28;20104;-85
2023/01/11 01:37:17;;;;;;;11.15;6.07;;;9.90;99.90;;;;;;5015134;28;20507;-84
2023/01/11 01:39:43;;;;;;;12.90;5.70;;;10.30;99.90;;;;;;5034998;28;20092;-85
2023/01/11 01:42:26;;;;;;;11.38;5.90;;;8.10;99.90;;;;;;5016800;28;20616;-84
2023/01/11 01:45:06;;;;;;;12.10;5.95;;;9.80;99.90;;;;;;5015940;28;20505;-84
2023/01/11 01:47:54;;;;;;;11.73;5.50;;;8.80;99.90;;;;;;5034128;28;20048;-83
2023/01/11 01:50:35;;;;;;;11.63;5.85;;;8.70;99.90;;;;;;5034520;28;20080;-83
2023/01/11 01:53:15;;;;;;;13.65;6.03;;;8.40;99.90;;;;;;5059259;23;20052;-83
2023/01/11 01:55:47;;;;;;;11.35;5.40;;;8.80;99.90;;;;;;5070115;28;20033;-83
2023/01/11 01:58:16;;;;;;;11.33;5.93;;;8.80;99.90;;;;;;5059758;28;20043;-83
2023/01/11 02:00:46;;;;;;;13.02;5.97;;;8.80;99.90;;;;;;5056380;28;20041;-83
2023/01/11 02:03:17;;;;;;;11.32;5.57;;;8.80;99.90;;;;;;5054773;28;20041;-84
2023/01/11 02:05:43;;;;;;;10.77;5.95;;;8.90;99.90;;;;;;5036003;28;20041;-83
2023/01/11 02:08:16;;;;;;;12.83;5.77;;;8.90;99.90;;;;;;5036346;28;20508;-83
2023/01/11 02:10:48;;;;;;;11.73;6.05;;;8.90;99.90;;;;;;5036479;28;20067;-83
2023/01/11 02:13:16;;;;;;;11.93;5.95;;;10.40;99.90;;;;;;5051601;28;20085;-83
2023/01/11 02:16:06;;;;;;;11.02;5.78;;;8.80;99.90;;;;;;5036930;28;20451;-83
2023/01/11 02:19:02;;;;;;;12.33;6.10;;;10.60;99.90;;;;;;5054004;28;20134;-83
2023/01/11 02:22:24;;;;;;;12.60;6.35;;;8.80;99.90;;;;;;5035437;28;20088;-83
2023/01/11 02:25:20;;;;;;;11.43;5.70;;;9.00;99.90;;;;;;5055440;28;20049;-84
2023/01/11 02:28:05;;;;;;;13.07;6.03;;;9.20;99.90;;;;;;5053101;28;20049;-84
2023/01/11 02:31:10;;;;;;;11.93;5.90;;;10.10;99.90;;;;;;5053758;28;20439;-84
2023/01/11 02:34:14;;;;;;;13.73;6.05;;;9.00;99.90;;;;;;5035085;28;20045;-84
2023/01/11 02:37:06;;;;;;;12.18;6.30;;;9.00;99.90;;;;;;5051165;22;20060;-85
2023/01/11 02:40:25;;;;;;;11.60;5.80;;;9.00;99.90;;;;;;5047919;28;20037;-84
2023/01/11 02:45:43;;;;;;;13.88;5.78;;;10.30;99.90;;;;;;5035683;28;20091;-84
2023/01/11 02:48:32;;;;;;;11.13;5.85;;;9.10;99.90;;;;;;5034754;28;20088;-84
2023/01/11 02:51:52;;;;;;;11.18;5.05;;;9.00;99.90;;;;;;5034986;28;20107;-85
2023/01/11 02:54:21;;;;;;;10.90;5.20;;;9.30;99.90;;;;;;4998645;28;20128;-85
2023/01/11 02:56:55;;;;;;;10.65;5.45;;;10.40;99.90;;;;;;5052486;28;20084;-84
2023/01/11 02:59:37;;;;;;;11.35;5.43;;;8.30;99.90;;;;;;5034909;28;20481;-85
2023/01/11 03:02:02;;;;;;;11.10;4.63;;;10.40;99.90;;;;;;5034515;28;20052;-85
2023/01/11 03:04:38;;;;;;;10.45;4.68;;;9.90;99.90;;;;;;5000184;28;20572;-85
2023/01/11 03:07:51;;;;;;;9.65;4.43;;;10.50;99.90;;;;;;5054926;28;20561;-85
2023/01/11 03:10:45;;;;;;;8.93;4.28;;;9.30;99.90;;;;;;5034029;28;20455;-85
2023/01/11 03:14:00;;;;;;;10.05;4.38;;;8.80;99.90;;;;;;5034207;28;20529;-85
2023/01/11 03:16:30;;;;;;;10.05;4.35;;;10.10;99.90;;;;;;5097991;23;20079;-85
2023/01/11 03:19:23;;;;;;;10.60;4.47;;;9.40;99.90;;;;;;5034884;28;20049;-85
2023/01/11 03:22:00;;;;;;;10.45;4.25;;;9.40;99.90;;;;;;5034829;28;20123;-85
2023/01/11 03:24:49;;;;;;;11.18;4.30;;;9.40;99.90;;;;;;5034034;28;20431;-85
2023/01/11 03:27:37;;;;;;;9.05;3.65;;;9.60;99.90;;;;;;5034621;28;20400;-85
2023/01/11 03:30:24;;;;;;;9.95;4.13;;;9.50;99.90;;;;;;5034423;28;20243;-85
2023/01/11 03:33:00;;;;;;;9.68;4.07;;;9.50;99.90;;;;;;5053003;28;20186;-85
2023/01/11 03:35:56;;;;;;;8.73;4.10;;;9.50;99.90;;;;;;5052853;28;20095;-84
2023/01/11 03:38:38;;;;;;;9.48;3.92;;;9.50;99.90;;;;;;5051863;28;20045;-85
2023/01/11 03:41:08;;;;;;;8.98;3.75;;;9.50;99.90;;;;;;5053270;28;20048;-84
2023/01/11 03:43:37;;;;;;;9.13;3.80;;;9.50;99.90;;;;;;5035052;28;20049;-85
2023/01/11 03:46:10;;;;;;;9.23;3.75;;;9.60;99.90;;;;;;5051732;28;20056;-84
2023/01/11 03:48:43;;;;;;;8.67;3.80;;;9.60;99.90;;;;;;5035080;28;20404;-85
2023/01/11 03:51:12;;;;;;;10.25;4.03;;;9.60;99.90;;;;;;5057409;28;20094;-84
2023/01/11 03:53:40;;;;;;;10.02;3.72;;;10.80;99.90;;;;;;5039110;28;20049;-84
2023/01/11 03:56:10;;;;;;;10.27;3.60;;;9.60;99.90;;;;;;5039132;28;20048;-84
2023/01/11 03:58:36;;;;;;;9.73;3.70;;;9.80;99.90;;;;;;5038891;28;20048;-84
2023/01/11 04:01:02;;;;;;;9.23;3.42;;;11.10;99.90;;;;;;5039150;28;20067;-84
2023/01/11 04:03:28;;;;;;;9.75;3.60;;;10.50;99.90;;;;;;5056428;28;20045;-84
2023/01/11 04:05:58;;;;;;;8.43;3.37;;;9.80;99.90;;;;;;5055535;28;20044;-84
2023/01/11 04:11:30;;;;;;;8.50;3.40;;;9.80;99.90;;;;;;5041369;22;20520;-84
2023/01/11 04:14:04;;;;;;;8.07;3.17;;;9.90;99.90;;;;;;5035608;28;20512;-85
2023/01/11 04:16:45;;;;;;;9.10;3.60;;;9.60;99.90;;;;;;5018133;28;20037;-85
2023/01/11 04:19:26;;;;;;;9.07;3.70;;;11.30;99.90;;;;;;5037085;28;20053;-83
2023/01/11 04:21:52;;;;;;;8.60;3.73;;;9.20;99.90;;;;;;5013916;28;20899;-84
2023/01/11 04:24:27;;;;;;;8.13;3.20;;;11.40;99.90;;;;;;5018857;28;20157;-84
2023/01/11 04:27:05;;;;;;;8.23;3.20;;;11.50;99.90;;;;;;5018433;28;20041;-84
2023/01/11 04:29:30;;;;;;;8.90;3.57;;;10.50;99.90;;;;;;5036262;28;20101;-84
2023/01/11 04:32:14;;;;;;;8.67;3.73;;;11.10;99.90;;;;;;5019169;28;20062;-84
2023/01/11 04:34:39;;;;;;;9.07;3.47;;;9.80;99.90;;;;;;5035717;28;20037;-84
2023/01/11 04:37:14;;;;;;;8.93;3.75;;;10.80;99.90;;;;;;5018695;28;20791;-85
2023/01/11 04:39:40;;;;;;;9.18;3.83;;;11.10;99.90;;;;;;5036073;28;20046;-85
2023/01/11 04:42:17;;;;;;;9.15;3.47;;;11.30;99.90;;;;;;5035250;28;20041;-84
2023/01/11 04:45:04;;;;;;;8.85;3.50;;;10.90;99.90;;;;;;5018982;28;20053;-84
2023/01/11 04:47:31;;;;;;;8.75;3.72;;;10.00;99.90;;;;;;5016912;28;20083;-84
2023/01/11 04:50:15;;;;;;;8.70;3.58;;;10.00;99.90;;;;;;5035835;28;20042;-84
2023/01/11 04:52:40;;;;;;;8.70;3.85;;;10.00;99.90;;;;;;5018590;28;20306;-85
2023/01/11 04:55:07;;;;;;;9.05;3.67;;;10.10;99.90;;;;;;5017682;28;20540;-84
2023/01/11 04:57:44;;;;;;;8.10;3.40;;;10.00;99.90;;;;;;5018001;28;20080;-84
2023/01/11 05:00:10;;;;;;;8.52;3.60;;;11.30;99.90;;;;;;5022970;28;20045;-84
2023/01/11 05:02:55;;;;;;;7.90;3.10;;;10.10;99.90;;;;;;5048089;28;20546;-84
2023/01/11 05:05:20;;;;;;;8.68;3.10;;;10.20;99.90;;;;;;5035714;28;20052;-84
2023/01/11 05:08:03;;;;;;;8.63;3.38;;;11.60;99.90;;;;;;5035533;28;20041;-84
2023/01/11 05:10:31;;;;;;;8.00;3.08;;;10.20;99.90;;;;;;5016723;28;20063;-84
2023/01/11 05:13:40;;;;;;;7.70;2.90;;;11.80;99.90;;;;;;5017422;28;20133;-84
2023/01/11 05:16:08;;;;;;;9.20;2.90;;;10.30;99.90;;;;;;5034040;28;20053;-84
2023/01/11 05:18:50;;;;;;;9.50;3.35;;;12.00;99.90;;;;;;5035211;28;20052;-84
2023/01/11 05:21:31;;;;;;;8.57;3.60;;;11.80;99.90;;;;;;5017084;28;20065;-84
2023/01/11 05:23:59;;;;;;;9.38;3.42;;;10.40;99.90;;;;;;5016038;28;20066;-85
2023/01/11 05:26:39;;;;;;;9.68;3.90;;;10.30;99.90;;;;;;5018877;28;20083;-84
2023/01/11 05:29:22;;;;;;;9.20;4.10;;;11.40;99.90;;;;;;5013030;28;20056;-84
2023/01/11 05:31:48;;;;;;;9.02;3.83;;;11.10;99.90;;;;;;5017139;28;20041;-84
2023/01/11 05:34:29;;;;;;;10.23;4.32;;;11.50;99.90;;;;;;5036559;28;20103;-84
2023/01/11 05:36:55;;;;;;;10.27;4.22;;;10.50;99.90;;;;;;5034652;28;20136;-84
2023/01/11 05:39:22;;;;;;;12.52;4.00;;;12.10;99.90;;;;;;5088844;23;20025;-85
2023/01/11 05:41:48;;;;;;;11.05;4.10;;;10.40;99.90;;;;;;5035096;28;20045;-85
2023/01/11 05:46:58;;;;;;;;;;;10.40;99.90;;;;;;5017793;28;20045;-85
2023/01/11 05:49:23;;;;;;;13.23;5.10;;;10.40;99.90;;;;;;5016575;28;20028;-84
2023/01/11 05:51:49;;;;;;;14.43;5.28;;;10.40;99.90;;;;;;5033564;28;20041;-84
2023/01/11 05:54:15;;;;;;;13.55;5.88;;;10.40;99.90;;;;;;5016824;28;20497;-84
2023/01/11 05:56:41;;;;;;;13.77;6.40;;;11.50;99.90;;;;;;5047718;28;20094;-84
2023/01/11 05:59:07;;;;;;;15.10;6.20;;;10.90;99.90;;;;;;5036247;28;20040;-84
2023/01/11 06:01:33;;;;;;;15.32;5.90;;;10.40;99.90;;;;;;5053751;28;20033;-84
2023/01/11 06:03:59;;;;;;;15.98;5.68;;;11.10;99.90;;;;;;5036465;28;20052;-84
2023/01/11 06:06:25;;;;;;;17.00;5.22;;;11.10;99.90;;;;;;5035572;28;20041;-85
2023/01/11 06:08:51;;;;;;;14.77;5.22;;;10.60;99.90;;;;;;5054580;28;20049;-84
2023/01/11 06:11:17;;;;;;;16.67;5.65;;;10.40;99.90;;;;;;5036174;28;20041;-84
2023/01/11 06:13:54;;;;;;;17.27;6.03;;;11.50;99.90;;;;;;5024455;28;20099;-85
2023/01/11 06:16:21;;;;;;;17.17;5.68;;;11.80;99.90;;;;;;5033829;28;20042;-85
2023/01/11 06:19:00;;;;;;;17.60;6.13;;;10.70;99.90;;;;;;5015011;28;20543;-84
2023/01/11 06:21:26;;;;;;;15.27;6.25;;;10.30;99.90;;;;;;5016386;28;20053;-85
2023/01/11 06:23:52;;;;;;;16.25;6.00;;;11.50;99.90;;;;;;5034182;28;20045;-85
2023/01/11 06:26:36;;;;;;;23.60;6.60;;;11.20;99.90;;;;;;5015032;28;20041;-85
2023/01/11 06:29:01;;;;;;;;;;;11.90;99.90;;;;;;5016317;28;20049;-85
2023/01/11 06:31:53;;;;;;;36.92;18.25;;;11.70;99.90;;;;;;5015767;28;19943;-84
2023/01/11 06:34:50;;;;;;;19.50;6.38;;;11.10;99.90;;;;;;5001823;28;20049;-85
2023/01/11 06:37:15;;;;;;;31.67;18.42;;;10.30;99.90;;;;;;5015284;28;20045;-84
2023/01/11 06:40:06;;;;;;;24.17;7.22;;;10.80;99.90;;;;;;5016660;28;20057;-85
2023/01/11 06:42:43;;;;;;;21.23;8.93;;;9.50;99.90;;;;;;5033109;28;20711;-84
2023/01/11 06:45:18;;;;;;;18.77;6.97;;;11.30;99.90;;;;;;5027388;28;20056;-85
2023/01/11 06:47:44;;;;;;;22.45;6.43;;;11.80;99.90;;;;;;5032908;28;20040;-84
2023/01/11 06:50:22;;;;;;;20.38;6.47;;;10.60;99.90;;;;;;5033319;28;20037;-84
2023/01/11 06:53:02;;;;;;;19.80;8.35;;;11.60;99.90;;;;;;5033521;28;20033;-85
2023/01/11 06:55:29;;;;;;;28.85;9.95;;;11.60;99.90;;;;;;5014638;28;20164;-85
2023/01/11 06:58:01;;;;;;;23.63;9.10;;;11.70;99.90;;;;;;5015824;28;20052;-84
2023/01/11 07:00:39;;;;;;;20.75;7.22;;;10.50;99.90;;;;;;5015209;28;20088;-85
2023/01/11 07:03:05;;;;;;;24.17;9.52;;;9.70;99.90;;;;;;5018037;28;20488;-84
2023/01/11 07:05:40;;;;;;;25.83;13.73;;;11.30;99.90;;;;;;5015450;28;20042;-84
2023/01/11 07:08:05;;;;;;;21.75;6.55;;;11.60;99.90;;;;;;5015293;28;20357;-84
2023/01/11 07:10:31;;;;;;;25.42;6.78;;;11.00;99.90;;;;;;5035784;28;20506;-85
2023/01/11 07:13:15;;;;;;;25.42;7.18;;;10.00;99.90;;;;;;5015229;28;20048;-84
2023/01/11 07:15:42;;;;;;;32.40;13.48;;;11.30;99.90;;;;;;5017080;28;20056;-85
2023/01/11 07:18:10;;;;;;;28.08;7.03;;;11.60;99.90;;;;;;5032964;28;20045;-85
2023/01/11 07:20:36;;;;;;;28.63;14.98;;;9.10;99.90;;;;;;5032398;28;20140;-84
2023/01/11 07:23:14;;;;;;;24.17;4.63;;;11.20;99.90;;;;;;5032358;28;20188;-85
2023/01/11 07:25:40;;;;;;;27.50;6.27;;;11.00;99.90;;;;;;5032250;28;20049;-85
2023/01/11 07:28:07;;;;;;;25.43;4.90;;;10.90;99.90;;;;;;5033322;28;20064;-85
2023/01/11 07:30:51;;;;;;;18.10;3.80;;;9.80;99.90;;;;;;5014132;28;20049;-84
2023/01/11 07:33:17;;;;;;;26.30;6.40;;;11.00;99.90;;;;;;5032444;28;20117;-85
2023/01/11 07:35:59;;;;;;;28.33;5.57;;;11.00;99.90;;;;;;5032969;28;20152;-85
2023/01/11 07:38:28;;;;;;;25.55;4.80;;;10.50;99.90;;;;;;5014926;28;20593;-84
2023/01/11 07:40:53;;;;;;;17.48;4.43;;;11.10;99.90;;;;;;5014600;28;20073;-85
2023/01/11 07:43:28;;;;;;;26.33;5.78;;;10.60;99.90;;;;;;5032025;28;20049;-84
2023/01/11 07:45:56;;;;;;;22.05;5.35;;;9.90;99.90;;;;;;5015110;28;20061;-84
2023/01/11 07:48:39;;;;;;;23.60;6.85;;;11.20;99.90;;;;;;5014708;28;20046;-84
2023/01/11 07:51:05;;;;;;;26.70;5.07;;;10.70;99.90;;;;;;5032119;28;20033;-83
2023/01/11 07:53:31;;;;;;;25.83;6.57;;;9.80;99.90;;;;;;5015073;28;20485;-84
2023/01/11 07:56:13;;;;;;;20.45;5.13;;;9.80;99.90;;;;;;5014632;28;20129;-84
2023/01/11 07:58:39;;;;;;;25.15;4.88;;;9.70;99.90;;;;;;5014130;28;20441;-85
2023/01/11 08:01:23;;;;;;;19.95;5.07;;;9.80;99.90;;;;;;5015032;28;20052;-85
2023/01/11 08:03:49;;;;;;;26.58;5.20;;;10.90;99.90;;;;;;5009826;28;20050;-84
2023/01/11 08:06:15;;;;;;;25.40;5.82;;;9.80;99.90;;;;;;5024457;28;20033;-83
2023/01/11 08:08:47;;;;;;;21.75;5.15;;;9.80;99.90;;;;;;5056851;28;20072;-84
2023/01/11 08:17:15;;;;;;;25.15;6.15;;;9.80;99.90;;;;;;5014831;28;20089;-83
2023/01/11 08:19:42;;;;;;;22.65;5.32;;;11.00;99.90;;;;;;5013495;28;20088;-84
2023/01/11 08:22:08;;;;;;;21.00;5.32;;;10.80;99.90;;;;;;5014757;28;20460;-83
2023/01/11 08:24:37;;;;;;;24.25;6.10;;;10.00;99.90;;;;;;5032471;28;20048;-85
2023/01/11 08:27:03;;;;;;;20.38;5.20;;;11.40;99.90;;;;;;5032380;28;20108;-84
2023/01/11 08:29:35;;;;;;;20.58;4.90;;;9.90;99.90;;;;;;5013925;28;20049;-84
2023/01/11 08:32:04;;;;;;;21.00;4.75;;;10.60;99.90;;;;;;5032589;28;20056;-84
2023/01/11 08:34:40;;;;;;;21.65;5.10;;;9.90;99.90;;;;;;4997461;28;20117;-84
2023/01/11 08:37:08;;;;;;;21.42;5.07;;;9.80;99.90;;;;;;5015808;28;20552;-83
2023/01/11 08:39:39;;;;;;;18.10;3.88;;;10.00;99.90;;;;;;4998826;28;20053;-84
2023/01/11 08:42:10;;;;;;;19.90;4.60;;;11.40;99.90;;;;;;5017403;28;20042;-84
2023/01/11 08:44:36;;;;;;;18.85;4.90;;;11.10;99.90;;;;;;5020901;28;20060;-84
2023/01/11 08:47:02;;;;;;;18.08;4.25;;;11.30;99.90;;;;;;5018167;28;20045;-84
2023/01/11 08:49:29;;;;;;;17.05;4.13;;;9.30;99.90;;;;;;5035481;28;20401;-84
2023/01/11 08:52:03;;;;;;;13.80;3.28;;;10.70;99.90;;;;;;5035928;28;20108;-84
2023/01/11 08:54:29;;;;;;;17.03;3.73;;;10.60;99.90;;;;;;5034764;28;20480;-84
2023/01/11 08:56:55;;;;;;;16.23;3.53;;;10.90;99.90;;;;;;5025841;23;20094;-83
2023/01/11 08:59:21;;;;;;;16.93;3.33;;;10.60;99.90;;;;;;5036097;28;20041;-84
2023/01/11 09:01:46;;;;;;;15.25;2.90;;;10.20;99.90;;;;;;5037230;28;20080;-84
2023/01/11 09:04:18;;;;;;;17.77;3.90;;;9.20;99.90;;;;;;5037119;28;20045;-84
2023/01/11 09:06:44;;;;;;;16.73;3.40;;;8.90;99.90;;;;;;5055433;28;20467;-84
2023/01/11 09:09:13;;;;;;;18.50;3.50;;;10.40;99.90;;;;;;5036198;28;20135;-82
2023/01/11 09:11:55;;;;;;;18.33;3.30;;;8.70;99.90;;;;;;5052041;28;20769;-83
2023/01/11 09:14:37;;;;;;;13.53;2.70;;;10.40;99.90;;;;;;5090524;23;20045;-83
2023/01/11 09:17:21;;;;;;;15.47;2.60;;;9.10;99.90;;;;;;5037628;28;20449;-82
2023/01/11 09:19:47;;;;;;;15.38;3.10;;;10.10;99.90;;;;;;5037428;28;20045;-83
2023/01/11 09:22:22;;;;;;;14.13;3.30;;;10.40;99.90;;;;;;5054135;28;20045;-83
2023/01/11 09:24:48;;;;;;;16.50;3.10;;;10.40;99.90;;;;;;5020985;28;20052;-82
2023/01/11 09:27:13;;;;;;;17.67;3.80;;;10.30;99.90;;;;;;5036421;28;20396;-82
2023/01/11 09:29:54;;;;;;;15.50;3.17;;;9.80;99.90;;;;;;5036203;28;20045;-83
2023/01/11 09:32:20;;;;;;;19.90;3.20;;;9.10;99.90;;;;;;5036945;28;20064;-83
2023/01/11 09:34:48;;;;;;;20.13;3.30;;;10.20;99.90;;;;;;5036855;28;20048;-83
2023/01/11 09:37:14;;;;;;;17.10;3.37;;;8.90;99.90;;;;;;5036608;28;20542;-83
2023/01/11 09:39:40;;;;;;;59.33;33.97;;;9.00;99.90;;;;;;5037180;28;20045;-83
2023/01/11 09:42:36;;;;;;;76.00;41.87;;;10.30;99.90;;;;;;5034304;28;20052;-83
2023/01/11 09:45:19;;;;;;;31.30;17.45;;;9.40;99.90;;;;;;5054784;28;20036;-83
2023/01/11 09:48:14;;;;;;;32.60;15.60;;;9.00;99.90;;;;;;5053917;28;20047;-83
2023/01/11 09:50:49;;;;;;;20.23;7.30;;;9.10;99.90;;;;;;5051862;28;20049;-83
2023/01/11 09:53:41;;;;;;;27.90;14.88;;;7.90;99.90;;;;;;5050367;28;20055;-84
2023/01/11 09:56:27;;;;;;;22.83;8.57;;;9.00;99.90;;;;;;5035843;28;20056;-84
2023/01/11 09:59:32;;;;;;;22.50;8.97;;;9.50;99.90;;;;;;5048288;28;20045;-84
2023/01/11 10:02:22;;;;;;;20.45;8.45;;;8.10;99.90;;;;;;5034722;28;20051;-84
2023/01/11 10:05:22;;;;;;;22.23;9.80;;;8.90;99.90;;;;;;5050312;28;20130;-84
2023/01/11 10:08:09;;;;;;;21.20;6.50;;;8.90;99.90;;;;;;5035610;28;20053;-83
2023/01/11 10:11:23;;;;;;;16.37;3.90;;;9.70;99.90;;;;;;5031723;28;20055;-83
2023/01/11 10:14:12;;;;;;;18.80;5.63;;;8.90;99.90;;;;;;5023772;28;20049;-83
2023/01/11 10:17:12;;;;;;;18.58;5.40;;;8.00;99.90;;;;;;5032405;28;20284;-83
2023/01/11 10:20:00;;;;;;;16.27;3.50;;;8.90;99.90;;;;;;5044266;28;20059;-83
2023/01/11 10:22:54;;;;;;;21.58;6.18;;;8.90;99.90;;;;;;5029193;28;20504;-83
2023/01/11 10:25:30;;;;;;;14.38;3.55;;;9.00;99.90;;;;;;5015656;28;20512;-83
2023/01/11 10:28:44;;;;;;;16.80;4.72;;;9.70;99.90;;;;;;5023116;28;20210;-84
2023/01/11 10:31:47;;;;;;;19.85;4.15;;;9.00;99.90;;;;;;5033962;28;20479;-83
2023/01/11 10:43:44;;;;;;;16.93;4.07;;;9.30;99.90;;;;;;4991069;28;20050;-83
2023/01/11 10:46:20;;;;;;;17.80;4.10;;;9.20;99.90;;;;;;4974871;28;20125;-82
2023/01/11 10:48:46;;;;;;;20.00;3.97;;;8.80;99.90;;;;;;4991920;28;20081;-82
2023/01/11 10:51:33;;;;;;;22.20;4.83;;;9.10;99.90;;;;;;5012940;28;20092;-83
2023/01/11 10:54:30;;;;;;;16.25;3.67;;;8.60;99.90;;;;;;5035041;28;20136;-83
2023/01/11 10:57:35;;;;;;;19.08;3.83;;;8.80;99.90;;;;;;5053903;28;20125;-82
2023/01/11 11:00:32;;;;;;;16.33;3.85;;;9.00;99.90;;;;;;5033728;28;20045;-83
2023/01/11 11:03:39;;;;;;;18.00;4.40;;;9.90;99.90;;;;;;5034166;28;20436;-83
2023/01/11 11:06:31;;;;;;;20.10;4.03;;;10.40;99.90;;;;;;5052957;28;20041;-83
2023/01/11 11:09:34;;;;;;;13.60;3.97;;;9.30;99.90;;;;;;5052923;28;20048;-83
2023/01/11 11:12:21;;;;;;;16.60;3.70;;;9.30;99.90;;;;;;5035889;28;20126;-84
2023/01/11 11:14:56;;;;;;;17.02;3.97;;;9.30;99.90;;;;;;5052270;28;20088;-84
2023/01/11 11:17:29;;;;;;;20.38;4.30;;;9.30;99.90;;;;;;5053699;28;20088;-84
2023/01/11 11:19:57;;;;;;;17.25;4.30;;;9.30;99.90;;;;;;5035950;28;20049;-84
2023/01/11 11:22:22;;;;;;;21.42;4.63;;;10.50;99.90;;;;;;5051800;28;20052;-84
2023/01/11 11:24:49;;;;;;;17.63;4.60;;;10.40;99.90;;;;;;5034748;28;20044;-86
2023/01/11 11:27:41;;;;;;;23.45;4.57;;;9.40;99.90;;;;;;5034806;28;20044;-85
2023/01/11 11:30:10;;;;;;;18.50;5.35;;;9.40;99.90;;;;;;5052575;28;20049;-83
2023/01/11 11:32:40;;;;;;;15.68;4.45;;;9.30;99.90;;;;;;5053004;28;20119;-83
2023/01/11 11:35:45;;;;;;;16.95;4.18;;;10.40;99.90;;;;;;5033737;28;20041;-84
2023/01/11 11:38:31;;;;;;;19.02;4.90;;;9.40;99.90;;;;;;5034662;28;20481;-85
2023/01/11 11:41:16;;;;;;;17.48;5.18;;;9.40;99.90;;;;;;5052864;28;20106;-84
2023/01/11 11:43:50;;;;;;;18.60;4.07;;;10.60;99.90;;;;;;5034160;28;20124;-83
2023/01/11 11:46:30;;;;;;;18.20;5.70;;;10.50;99.90;;;;;;5055601;28;20455;-83
2023/01/11 11:49:16;;;;;;;19.73;5.43;;;10.40;99.90;;;;;;5034977;28;20072;-83
2023/01/11 11:51:56;;;;;;;12.20;4.43;;;10.60;99.90;;;;;;5035014;28;20041;-83
2023/01/11 11:54:50;;;;;;;16.88;4.63;;;9.50;99.90;;;;;;5036736;28;20073;-84
2023/01/11 11:57:26;;;;;;;13.48;3.65;;;8.90;99.90;;;;;;5051788;28;20132;-83
2023/01/11 12:00:47;;;;;;;13.30;3.43;;;9.70;99.90;;;;;;5035077;28;20477;-84
2023/01/11 12:03:27;;;;;;;18.75;3.88;;;9.90;99.90;;;;;;4995906;28;20124;-83
2023/01/11 12:06:03;;;;;;;17.33;3.23;;;9.80;99.90;;;;;;5034342;28;20049;-84
2023/01/11 12:08:33;;;;;;;13.27;3.17;;;9.60;99.90;;;;;;5034097;28;20048;-84
2023/01/11 12:11:01;;;;;;;18.63;3.40;;;9.60;99.90;;;;;;5034511;28;20041;-83
2023/01/11 12:13:41;;;;;;;16.40;3.40;;;10.30;99.90;;;;;;5030417;28;20132;-83
2023/01/11 12:16:58;;;;;;;15.90;3.00;;;9.60;99.90;;;;;;5017757;28;20119;-83
2023/01/11 12:19:44;;;;;;;18.15;3.88;;;9.60;99.90;;;;;;5016303;28;20050;-83
2023/01/11 12:22:24;;;;;;;18.90;3.88;;;9.50;99.90;;;;;;5032438;28;20401;-82
2023/01/11 12:25:20;;;;;;;21.10;3.72;;;10.70;99.90;;;;;;5034780;28;20065;-82
2023/01/11 12:28:10;;;;;;;14.40;3.55;;;10.70;99.90;;;;;;5035538;28;20111;-83
2023/01/11 12:31:35;;;;;;;18.60;5.90;;;10.80;99.90;;;;;;5035619;28;20099;-82
2023/01/11 12:34:37;;;;;;;32.80;9.67;;;9.10;99.90;;;;;;4994301;28;20052;-82
2023/01/11 12:37:23;;;;;;;18.30;5.72;;;9.10;99.90;;;;;;5032416;28;20363;-82
2023/01/11 12:40:02;;;;;;;17.40;4.80;;;9.20;99.90;;;;;;5015586;28;20107;-82
2023/01/11 12:42:44;;;;;;;24.30;6.47;;;10.20;99.90;;;;;;5034854;28;20049;-82
2023/01/11 12:45:18;;;;;;;34.80;12.73;;;9.30;99.90;;;;;;5016836;28;20046;-81
2023/01/11 12:48:00;;;;;;;36.72;11.88;;;9.20;99.90;;;;;;5033746;28;20037;-82
2023/01/11 12:51:01;;;;;;;36.33;13.80;;;9.10;99.90;;;;;;5034459;28;20072;-81
2023/01/11 12:53:51;;;;;;;22.67;6.05;;;9.20;99.90;;;;;;5030274;28;20041;-81
2023/01/11 12:56:41;;;;;;;32.43;13.77;;;9.20;99.90;;;;;;5014933;28;20107;-82
2023/01/11 12:59:44;;;;;;;24.03;9.30;;;9.20;99.90;;;;;;5016461;28;20056;-82
2023/01/11 13:02:46;;;;;;;21.90;7.27;;;9.20;99.90;;;;;;5034105;28;20468;-82
2023/01/11 13:05:33;;;;;;;26.52;10.95;;;9.30;99.90;;;;;;5031851;28;20041;-81
2023/01/11 13:08:20;;;;;;;29.13;12.47;;;9.40;99.90;;;;;;5014407;28;20041;-81
2023/01/11 13:10:54;;;;;;;36.45;12.48;;;9.30;99.90;;;;;;5034290;28;20064;-81
2023/01/11 13:13:34;;;;;;;19.05;5.95;;;9.30;99.90;;;;;;5014970;28;20086;-82
2023/01/11 13:16:16;;;;;;;19.23;4.28;;;9.20;99.90;;;;;;5016745;28;20045;-82
2023/01/11 13:19:11;;;;;;;26.52;8.27;;;9.20;99.90;;;;;;5018223;28;20049;-81
2023/01/11 13:21:52;;;;;;;21.70;8.13;;;9.10;99.90;;;;;;5014385;28;20084;-82
2023/01/11 13:24:28;;;;;;;25.87;10.63;;;9.10;99.90;;;;;;5033539;28;20044;-81
2023/01/11 13:26:58;;;;;;;25.00;10.47;;;9.70;99.90;;;;;;5018541;28;20065;-81
2023/01/11 13:29:40;;;;;;;27.33;8.77;;;9.20;99.90;;;;;;5017025;28;20054;-82
2023/01/11 13:32:13;;;;;;;17.95;4.88;;;9.30;99.90;;;;;;5034512;28;20558;-81
2023/01/11 13:34:49;;;;;;;22.27;8.70;;;9.40;99.90;;;;;;5034111;28;20065;-81
2023/01/11 13:37:22;;;;;;;18.13;4.47;;;9.60;99.90;;;;;;5016514;28;20049;-81
2023/01/11 13:39:58;;;;;;;19.87;4.83;;;9.80;99.90;;;;;;5034887;28;20064;-81
2023/01/11 13:42:32;;;;;;;19.83;5.55;;;9.80;99.90;;;;;;5015436;28;20041;-81
2023/01/11 13:45:30;;;;;;;17.80;4.80;;;11.10;99.90;;;;;;5016458;28;20504;-81
2023/01/11 13:48:06;;;;;;;20.88;5.60;;;9.80;99.90;;;;;;5014824;28;20045;-81
2023/01/11 13:50:40;;;;;;;18.23;4.00;;;9.80;99.90;;;;;;5033535;28;20045;-80
2023/01/11 13:53:24;;;;;;;;;;;10.20;99.90;;;;;;5017220;28;20050;-81
2023/01/11 13:56:01;;;;;;;16.85;3.80;;;9.60;99.90;;;;;;5015751;28;19970;-82
2023/01/11 13:58:34;;;;;;;17.08;3.60;;;9.50;99.90;;;;;;5015711;28;20053;-82
2023/01/11 14:01:09;;;;;;;18.60;4.68;;;9.50;99.90;;;;;;5016264;28;20052;-81
2023/01/11 14:03:58;;;;;;;16.05;4.72;;;9.40;99.90;;;;;;5015796;28;20053;-81
2023/01/11 14:06:39;;;;;;;19.52;5.43;;;9.30;99.90;;;;;;5016449;28;20129;-81
2023/01/11 14:09:07;;;;;;;18.33;4.45;;;9.30;99.90;;;;;;5012413;28;20240;-81
2023/01/11 14:11:46;;;;;;;15.50;4.27;;;9.20;99.90;;;;;;5015066;28;20052;-82